createdAt,value
2019-03-31T00:07:14.499Z,5.00
2019-03-31T00:12:17.713Z,5.00
2019-03-31T00:17:21.415Z,5.00
2019-03-31T00:22:24.691Z,4.90
2019-03-31T00:27:28.041Z,4.90
2019-03-31T00:32:31.376Z,4.90
2019-03-31T00:37:34.693Z,5.00
2019-03-31T00:42:38.098Z,4.90
2019-03-31T00:47:41.446Z,4.90
2019-03-31T00:52:44.730Z,4.90
2019-03-31T00:57:48.035Z,4.90
2019-03-31T01:02:51.311Z,4.90
2019-03-31T01:07:54.770Z,4.90
2019-03-31T01:12:58.163Z,4.80
2019-03-31T01:18:01.827Z,4.80
2019-03-31T01:23:06.146Z,4.80
2019-03-31T01:28:09.970Z,4.70
2019-03-31T01:33:13.768Z,4.70
2019-03-31T01:38:17.628Z,4.80
2019-03-31T01:43:21.454Z,4.70
2019-03-31T01:48:24.996Z,4.70
2019-03-31T01:53:28.290Z,4.60
2019-03-31T01:58:31.839Z,4.70
2019-03-31T02:03:35.250Z,4.70
2019-03-31T02:08:40.052Z,4.70
2019-03-31T02:13:43.340Z,4.70
2019-03-31T02:24:33.664Z,4.70
2019-03-31T02:29:38.146Z,4.70
2019-03-31T02:34:41.654Z,4.70
2019-03-31T02:39:45.577Z,4.80
2019-03-31T02:44:49.854Z,4.80
2019-03-31T02:49:53.178Z,4.80
2019-03-31T02:54:57.032Z,4.90
2019-03-31T03:00:01.790Z,4.80
2019-03-31T03:05:18.836Z,4.70
2019-03-31T03:10:11.445Z,4.70
2019-03-31T03:15:26.283Z,4.70
2019-03-31T03:20:31.897Z,4.70
2019-03-31T03:25:35.169Z,4.70
2019-03-31T03:30:40.911Z,4.60
2019-03-31T03:35:44.694Z,4.60
2019-03-31T03:40:48.591Z,4.50
2019-03-31T03:45:51.811Z,4.60
2019-03-31T03:50:58.640Z,4.70
2019-03-31T03:56:03.315Z,4.60
2019-03-31T04:01:18.542Z,4.60
2019-03-31T04:06:22.125Z,4.50
2019-03-31T04:11:26.923Z,4.50
2019-03-31T04:16:30.240Z,4.50
2019-03-31T04:21:34.196Z,4.40
2019-03-31T04:26:37.494Z,4.40
2019-03-31T04:31:40.796Z,4.30
2019-03-31T04:36:44.593Z,4.30
2019-03-31T04:41:47.873Z,4.30
2019-03-31T04:46:51.246Z,4.30
2019-03-31T04:51:54.463Z,4.40
2019-03-31T04:56:57.838Z,4.30
2019-03-31T05:02:01.055Z,4.40
2019-03-31T05:07:04.839Z,4.30
2019-03-31T05:12:08.141Z,4.20
2019-03-31T05:17:11.328Z,4.20
2019-03-31T05:22:15.243Z,4.10
2019-03-31T05:27:18.546Z,4.10
2019-03-31T05:32:21.846Z,4.00
2019-03-31T05:37:27.365Z,4.00
2019-03-31T05:42:30.675Z,4.00
2019-03-31T05:47:34.108Z,4.00
2019-03-31T05:52:38.079Z,4.10
2019-03-31T05:57:41.473Z,4.00
2019-03-31T06:02:44.708Z,4.20
2019-03-31T06:07:48.342Z,4.10
2019-03-31T06:12:51.637Z,4.30
2019-03-31T06:17:54.931Z,4.50
2019-03-31T06:22:58.306Z,4.50
2019-03-31T06:28:01.596Z,4.40
2019-03-31T06:33:04.861Z,4.50
2019-03-31T06:38:08.229Z,4.50
2019-03-31T06:43:11.539Z,4.50
2019-03-31T06:48:14.811Z,4.70
2019-03-31T06:53:18.043Z,4.70
2019-03-31T06:58:21.327Z,4.70
2019-03-31T07:03:24.601Z,4.80
2019-03-31T07:08:27.788Z,4.80
2019-03-31T07:13:31.085Z,4.90
2019-03-31T07:18:34.353Z,4.80
2019-03-31T07:23:37.636Z,5.00
2019-03-31T07:28:40.888Z,5.00
2019-03-31T07:33:44.262Z,5.20
2019-03-31T07:38:48.014Z,5.10
2019-03-31T07:43:51.402Z,5.20
2019-03-31T07:48:55.102Z,5.30
2019-03-31T07:53:58.460Z,5.40
2019-03-31T07:59:02.669Z,5.50
2019-03-31T08:04:06.022Z,5.60
2019-03-31T08:09:09.192Z,5.60
2019-03-31T08:14:12.556Z,5.70
2019-03-31T08:19:15.816Z,5.70
2019-03-31T08:24:19.268Z,5.60
2019-03-31T08:29:22.581Z,5.80
2019-03-31T08:34:25.927Z,5.80
2019-03-31T08:39:29.261Z,6.00
2019-03-31T08:44:32.523Z,6.10
2019-03-31T08:49:35.811Z,6.00
2019-03-31T08:54:40.086Z,5.90
2019-03-31T08:59:43.425Z,6.00
2019-03-31T09:04:46.694Z,6.20
2019-03-31T09:09:50.047Z,6.20
2019-03-31T09:14:53.359Z,6.30
2019-03-31T09:19:56.761Z,6.40
2019-03-31T09:25:00.379Z,6.30
2019-03-31T09:30:05.497Z,6.40
2019-03-31T09:35:09.375Z,6.40
2019-03-31T09:40:13.376Z,6.50
2019-03-31T09:45:16.834Z,6.50
2019-03-31T09:50:20.933Z,6.50
2019-03-31T09:55:24.259Z,6.90
2019-03-31T10:00:48.251Z,6.70
2019-03-31T10:05:51.476Z,6.70
2019-03-31T10:10:54.721Z,6.80
2019-03-31T10:15:57.983Z,6.80
2019-03-31T10:21:01.560Z,7.30
2019-03-31T10:26:05.140Z,7.10
2019-03-31T10:31:08.445Z,7.30
2019-03-31T10:36:12.908Z,6.90
2019-03-31T10:41:16.333Z,7.10
2019-03-31T10:46:19.737Z,7.20
2019-03-31T10:51:23.002Z,7.40
2019-03-31T10:56:26.340Z,7.00
2019-03-31T11:01:29.616Z,6.90
2019-03-31T11:06:32.999Z,6.80
2019-03-31T11:11:36.296Z,7.10
2019-03-31T11:16:39.601Z,7.00
2019-03-31T11:22:02.283Z,7.10
2019-03-31T11:27:05.698Z,7.30
2019-03-31T11:32:08.896Z,7.30
2019-03-31T11:37:13.685Z,7.30
2019-03-31T11:42:17.239Z,7.20
2019-03-31T11:47:20.535Z,7.20
2019-03-31T11:52:25.116Z,7.00
2019-03-31T11:57:29.592Z,7.70
2019-03-31T12:02:33.503Z,8.20
2019-03-31T12:07:46.658Z,8.30
2019-03-31T12:12:42.834Z,8.70
2019-03-31T12:17:46.214Z,9.50
2019-03-31T12:22:49.403Z,9.20
2019-03-31T12:27:52.844Z,9.50
2019-03-31T12:32:56.330Z,9.40
2019-03-31T12:37:59.710Z,9.20
2019-03-31T12:43:03.343Z,9.50
2019-03-31T12:48:06.675Z,9.50
2019-03-31T12:53:09.994Z,9.30
2019-03-31T12:58:13.316Z,9.90
2019-03-31T13:03:16.672Z,9.50
2019-03-31T13:08:19.925Z,10.00
2019-03-31T13:13:23.289Z,10.10
2019-03-31T13:18:28.105Z,9.40
2019-03-31T13:23:31.917Z,9.80
2019-03-31T13:28:35.239Z,9.70
2019-03-31T13:33:39.668Z,9.20
2019-03-31T13:38:42.939Z,9.30
2019-03-31T13:43:46.227Z,10.60
2019-03-31T13:48:49.495Z,10.70
2019-03-31T13:53:52.809Z,9.80
2019-03-31T13:58:56.111Z,10.20
2019-03-31T14:03:59.362Z,11.40
2019-03-31T14:09:05.240Z,11.80
2019-03-31T14:14:08.594Z,11.30
2019-03-31T14:19:13.135Z,11.10
2019-03-31T14:24:16.636Z,11.00
2019-03-31T14:29:20.155Z,11.10
2019-03-31T14:34:23.514Z,11.20
2019-03-31T14:39:26.833Z,11.20
2019-03-31T14:44:30.040Z,11.90
2019-03-31T14:49:34.302Z,11.40
2019-03-31T14:54:37.645Z,11.10
2019-03-31T14:59:41.292Z,12.20
2019-03-31T15:04:44.706Z,11.50
2019-03-31T15:09:48.075Z,11.10
2019-03-31T15:14:51.262Z,11.10
2019-03-31T15:19:54.647Z,11.30
2019-03-31T15:24:58.120Z,11.70
2019-03-31T15:30:01.572Z,11.80
2019-03-31T15:35:06.320Z,11.20
2019-03-31T15:40:09.836Z,10.80
2019-03-31T15:45:13.188Z,10.60
2019-03-31T15:50:17.130Z,11.00
2019-03-31T15:55:20.599Z,10.30
2019-03-31T16:00:23.956Z,8.50
2019-03-31T16:05:27.991Z,7.10
2019-03-31T16:10:30.860Z,7.10
2019-03-31T16:15:33.687Z,6.90
2019-03-31T16:20:36.614Z,6.70
2019-03-31T16:25:42.703Z,6.70
2019-03-31T16:30:45.437Z,6.90
2019-03-31T16:35:48.197Z,7.50
2019-03-31T16:40:50.974Z,8.50
2019-03-31T16:45:53.903Z,9.30
2019-03-31T16:50:57.080Z,9.10
2019-03-31T16:55:59.834Z,8.10
2019-03-31T17:01:02.630Z,7.00
2019-03-31T17:06:05.437Z,6.30
2019-03-31T17:11:08.427Z,6.10
2019-03-31T17:16:11.330Z,5.70
2019-03-31T17:21:14.164Z,5.50
2019-03-31T17:26:16.922Z,5.40
2019-03-31T17:31:19.751Z,5.30
2019-03-31T17:36:22.467Z,5.00
2019-03-31T17:41:25.311Z,4.90
2019-03-31T17:46:28.073Z,4.80
2019-03-31T17:51:35.513Z,4.60
2019-03-31T17:56:44.301Z,4.50
2019-03-31T18:01:51.522Z,4.40
2019-03-31T18:07:03.563Z,4.20
2019-03-31T18:12:07.698Z,4.10
2019-03-31T18:17:10.587Z,4.00
2019-03-31T18:22:16.672Z,3.90
2019-03-31T18:27:18.920Z,3.80
2019-03-31T18:32:21.805Z,3.80
2019-03-31T18:37:24.788Z,3.70
2019-03-31T18:42:30.946Z,3.70
2019-03-31T18:47:33.785Z,3.60
2019-03-31T18:52:40.422Z,3.60
2019-03-31T18:58:18.298Z,3.60
2019-03-31T19:03:36.250Z,3.60
2019-03-31T19:09:07.618Z,3.60
2019-03-31T19:14:31.091Z,3.60
2019-03-31T19:19:56.704Z,3.50
2019-03-31T19:25:31.244Z,3.40
2019-03-31T19:30:54.430Z,3.30
2019-03-31T19:36:20.736Z,3.10
2019-03-31T19:41:55.441Z,3.20
2019-03-31T19:47:25.166Z,3.10
2019-03-31T19:52:52.104Z,3.20
2019-03-31T19:58:13.027Z,3.20
2019-03-31T20:03:34.020Z,3.20
2019-03-31T20:08:56.423Z,3.20
2019-03-31T20:14:24.662Z,3.20
2019-03-31T20:19:49.914Z,3.20
2019-03-31T20:25:00.950Z,3.10
2019-03-31T20:30:23.234Z,3.00
2019-03-31T20:35:44.264Z,2.80
2019-03-31T20:41:05.104Z,2.60
2019-03-31T20:46:09.243Z,2.40
2019-03-31T20:51:12.011Z,2.60
2019-03-31T20:56:14.905Z,2.80
2019-03-31T21:01:17.827Z,2.90
2019-03-31T21:06:20.608Z,2.80
2019-03-31T21:11:23.444Z,2.70
2019-03-31T21:16:26.233Z,2.50
2019-03-31T21:21:29.041Z,2.40
2019-03-31T21:26:31.856Z,2.50
2019-03-31T21:31:34.587Z,2.50
2019-03-31T21:36:37.328Z,2.50
2019-03-31T21:41:40.387Z,2.50
2019-03-31T21:46:43.114Z,2.40
2019-03-31T21:51:45.914Z,2.30
2019-03-31T21:56:49.838Z,2.30
2019-03-31T22:01:53.820Z,2.30
2019-03-31T22:06:56.606Z,2.20
2019-03-31T22:11:59.509Z,2.20
2019-03-31T22:17:03.268Z,2.20
2019-03-31T22:22:06.091Z,2.30
2019-03-31T22:27:08.917Z,2.50
2019-03-31T22:32:11.765Z,2.50
2019-03-31T22:37:14.707Z,2.40
2019-03-31T22:42:17.556Z,2.20
2019-03-31T22:47:20.383Z,2.00
2019-03-31T22:52:23.212Z,1.90
2019-03-31T22:57:25.975Z,1.90
2019-03-31T23:02:28.802Z,1.80
2019-03-31T23:07:31.608Z,1.70
2019-03-31T23:12:34.279Z,1.80
2019-03-31T23:17:37.060Z,1.80
2019-03-31T23:22:39.811Z,1.70
2019-03-31T23:27:42.587Z,1.70
2019-03-31T23:32:45.469Z,1.70
2019-03-31T23:37:48.249Z,1.90
2019-03-31T23:42:51.028Z,1.90
2019-03-31T23:47:53.825Z,1.90
2019-03-31T23:52:56.852Z,1.80
2019-03-31T23:57:59.814Z,1.80
